Time;durP1;ratioP1;P1;durP2;ratioP2;P2;SDS_P1;SDS_P2;PMS_P1;PMS_P2;Temp;Humidity;BMP_temperature;BMP_pressure;BME280_temperature;BME280_humidity;BME280_pressure;Samples;Min_cycle;Max_cycle;Signal;HPM_P1;HPM_P2
2022/06/07 00:00:16;;;;;;;1.88;0.20;;;;;;;28.26;43.03;100380.28;5073873;28;20580;-72
2022/06/07 00:02:42;;;;;;;0.95;0.10;;;;;;;28.26;43.00;100372.22;5088095;28;20027;-71
2022/06/07 00:05:07;;;;;;;1.42;0.10;;;;;;;28.26;43.23;100366.88;5088357;28;20081;-71
2022/06/07 00:07:33;;;;;;;0.80;0.20;;;;;;;28.26;43.32;100365.00;5087217;28;20040;-70
2022/06/07 00:09:58;;;;;;;0.20;0.10;;;;;;;28.27;43.00;100361.25;5088411;28;20027;-71
2022/06/07 00:12:24;;;;;;;0.60;0.10;;;;;;;28.28;42.84;100364.75;5086641;28;20040;-71
2022/06/07 00:14:49;;;;;;;0.60;0.20;;;;;;;28.29;42.80;100359.13;5086258;28;20020;-71
2022/06/07 00:17:15;;;;;;;0.82;0.20;;;;;;;28.29;43.10;100355.63;5087729;28;20028;-71
2022/06/07 00:19:41;;;;;;;1.55;0.10;;;;;;;28.29;42.76;100355.63;5088177;28;20028;-71
2022/06/07 00:22:08;;;;;;;0.50;0.10;;;;;;;28.28;42.80;100346.78;5088911;28;20491;-71
2022/06/07 00:24:34;;;;;;;0.65;0.20;;;;;;;28.28;42.69;100346.00;5087510;28;20384;-71
2022/06/07 00:27:00;;;;;;;0.70;0.10;;;;;;;28.28;42.59;100356.69;5089608;28;20024;-72
2022/06/07 00:29:27;;;;;;;0.40;0.10;;;;;;;28.27;42.93;100342.50;5087522;28;20086;-71
2022/06/07 00:31:53;;;;;;;0.40;0.17;;;;;;;28.26;42.75;100338.22;5088124;28;20494;-72
2022/06/07 00:34:18;;;;;;;0.60;0.10;;;;;;;28.27;42.84;100333.66;5085447;28;20355;-71
2022/06/07 00:36:45;;;;;;;0.40;0.20;;;;;;;28.27;42.75;100333.66;5082164;28;20039;-71
2022/06/07 00:39:10;;;;;;;0.63;0.20;;;;;;;28.25;42.67;100331.25;5087998;28;20024;-72
2022/06/07 00:41:37;;;;;;;0.57;0.10;;;;;;;28.25;42.82;100325.09;5087863;28;20105;-71
2022/06/07 00:44:20;;;;;;;0.38;0.10;;;;;;;28.22;42.91;100321.06;5087016;28;20040;-72
2022/06/07 00:46:48;;;;;;;0.45;0.17;;;;;;;28.24;42.80;100320.78;5087788;28;20436;-72
2022/06/07 00:49:18;;;;;;;0.65;0.10;;;;;;;28.23;42.73;100314.63;5088017;28;20108;-72
2022/06/07 00:51:46;;;;;;;3.83;0.30;;;;;;;28.22;43.03;100315.69;5089353;28;20043;-71
2022/06/07 00:54:27;;;;;;;0.93;0.20;;;;;;;28.21;42.58;100302.53;5083822;28;20023;-72
2022/06/07 00:56:53;;;;;;;0.77;0.10;;;;;;;28.20;42.62;100296.38;5086744;28;20038;-71
2022/06/07 00:59:18;;;;;;;0.45;0.10;;;;;;;28.20;42.77;100292.91;5085392;28;20024;-71
2022/06/07 01:01:44;;;;;;;0.40;0.20;;;;;;;28.19;42.48;100289.41;5087876;28;20492;-72
2022/06/07 01:04:10;;;;;;;0.47;0.15;;;;;;;28.19;42.84;100289.41;5080553;28;20020;-71
2022/06/07 01:12:05;;;;;;;1.05;0.10;;;;;;;28.18;42.82;100281.66;5088849;28;20079;-71
2022/06/07 01:14:30;;;;;;;0.40;0.20;;;;;;;28.19;43.07;100277.91;5085865;28;20057;-71
2022/06/07 01:16:56;;;;;;;0.55;0.20;;;;;;;28.17;42.77;100275.47;5088003;28;20028;-71
2022/06/07 01:19:21;;;;;;;0.65;0.10;;;;;;;28.18;42.91;100278.97;5086246;28;20024;-71
2022/06/07 01:21:47;;;;;;;0.68;0.10;;;;;;;28.19;42.74;100269.84;5088078;28;20055;-71
2022/06/07 01:24:14;;;;;;;0.52;0.17;;;;;;;28.19;42.67;100272.53;5082286;28;20122;-71
2022/06/07 01:26:40;;;;;;;0.50;0.10;;;;;;;28.17;42.86;100267.44;5088627;28;20506;-70
2022/06/07 01:29:05;;;;;;;0.82;0.20;;;;;;;28.18;42.73;100268.25;5087203;28;20036;-71
2022/06/07 01:31:31;;;;;;;0.40;0.10;;;;;;;28.16;42.72;100257.00;5088703;28;20364;-71
2022/06/07 01:33:57;;;;;;;2.08;0.10;;;;;;;28.17;42.55;100254.06;5085952;28;20490;-71
2022/06/07 01:36:23;;;;;;;0.50;0.10;;;;;;;28.15;43.00;100245.47;5085211;28;20111;-70
2022/06/07 01:44:17;;;;;;;0.83;0.20;;;;;;;28.10;43.03;100248.16;5084642;28;20043;-71
2022/06/07 01:46:42;;;;;;;0.50;0.20;;;;;;;28.11;43.03;100246.28;5084454;28;20024;-71
2022/06/07 01:49:08;;;;;;;0.40;0.10;;;;;;;28.09;43.16;100250.03;5084922;28;20027;-71
2022/06/07 01:51:34;;;;;;;0.47;0.10;;;;;;;28.08;42.57;100240.38;5084967;28;20089;-71
2022/06/07 01:53:59;;;;;;;0.30;0.20;;;;;;;28.08;42.62;100240.38;5083483;28;20376;-72
2022/06/07 01:56:25;;;;;;;0.30;0.10;;;;;;;28.08;42.64;100239.56;5085063;28;20498;-70
2022/06/07 01:58:50;;;;;;;0.28;0.10;;;;;;;28.07;42.68;100230.72;5085812;28;20047;-71
2022/06/07 02:01:16;;;;;;;0.52;0.20;;;;;;;28.06;42.75;100228.31;5083400;28;20044;-71
2022/06/07 02:03:41;;;;;;;0.95;0.20;;;;;;;28.06;42.61;100220.28;5082442;28;20024;-71
2022/06/07 02:06:11;;;;;;;0.70;0.15;;;;;;;28.07;42.71;100216.53;5085693;28;20158;-71
2022/06/07 02:08:36;;;;;;;0.30;0.20;;;;;;;28.08;42.85;100207.44;5087302;28;20398;-71
2022/06/07 02:11:08;;;;;;;0.22;0.20;;;;;;;28.07;42.87;100203.97;5085189;28;20035;-71
2022/06/07 02:13:34;;;;;;;0.85;0.30;;;;;;;28.08;42.62;100199.41;5081642;28;20560;-71
2022/06/07 02:16:00;;;;;;;0.60;0.10;;;;;;;28.09;42.98;100192.97;5084473;28;20111;-71
2022/06/07 02:18:26;;;;;;;0.50;0.10;;;;;;;28.09;42.98;100199.13;5087473;28;20127;-71
2022/06/07 02:20:54;;;;;;;0.40;0.10;;;;;;;28.11;42.66;100187.34;5082502;28;20399;-71
2022/06/07 02:23:21;;;;;;;1.00;0.10;;;;;;;28.12;42.73;100186.28;5084901;28;20034;-71
2022/06/07 02:25:51;;;;;;;1.70;0.20;;;;;;;28.12;42.66;100187.09;5083170;28;20032;-71
2022/06/07 02:28:20;;;;;;;1.67;0.20;;;;;;;28.13;42.59;100183.34;5085365;28;20343;-71
2022/06/07 02:30:46;;;;;;;0.80;0.20;;;;;;;28.14;42.74;100186.81;5083204;28;20040;-70
2022/06/07 02:33:13;;;;;;;1.30;0.20;;;;;;;28.14;42.99;100184.16;5085621;28;20028;-71
2022/06/07 02:35:40;;;;;;;0.30;0.20;;;;;;;28.14;42.81;100192.19;5086765;28;20028;-71
2022/06/07 02:38:08;;;;;;;0.40;0.10;;;;;;;28.15;42.42;100183.88;5085079;28;20024;-71
2022/06/07 02:40:35;;;;;;;0.40;0.20;;;;;;;28.14;42.58;100179.59;5084442;28;20028;-71
2022/06/07 02:43:01;;;;;;;0.52;0.20;;;;;;;28.14;42.88;100176.91;5083677;28;20537;-71
2022/06/07 02:45:27;;;;;;;0.70;0.20;;;;;;;28.13;42.76;100186.03;5084109;28;20138;-71
2022/06/07 02:47:53;;;;;;;0.40;0.17;;;;;;;28.13;42.93;100182.53;5086049;28;20472;-71
2022/06/07 02:50:18;;;;;;;0.38;0.20;;;;;;;28.13;42.86;100182.53;5082852;28;20027;-71
2022/06/07 02:52:44;;;;;;;0.40;0.10;;;;;;;28.12;42.56;100178.25;5082875;28;20047;-71
2022/06/07 02:55:10;;;;;;;2.70;0.20;;;;;;;28.12;42.90;100178.25;5087877;28;20024;-71
2022/06/07 02:57:36;;;;;;;0.98;0.15;;;;;;;28.11;42.51;100180.13;5088982;28;20038;-70
2022/06/07 03:00:02;;;;;;;0.30;0.10;;;;;;;28.11;42.88;100174.78;5088436;28;20554;-71
2022/06/07 03:02:28;;;;;;;1.23;0.20;;;;;;;28.11;42.50;100173.97;5087415;28;20070;-71
2022/06/07 03:04:53;;;;;;;0.52;0.20;;;;;;;28.10;42.60;100173.16;5091516;28;20422;-71
2022/06/07 03:07:18;;;;;;;0.50;0.20;;;;;;;28.11;42.84;100182.00;5088342;28;20032;-71
2022/06/07 03:09:44;;;;;;;0.43;0.20;;;;;;;28.09;42.83;100183.06;5091027;28;20365;-71
2022/06/07 03:12:09;;;;;;;0.47;0.20;;;;;;;28.11;42.67;100179.31;5086931;28;20036;-72
2022/06/07 03:14:35;;;;;;;0.30;0.13;;;;;;;28.09;42.66;100174.22;5091069;28;20067;-71
2022/06/07 03:17:00;;;;;;;2.80;0.20;;;;;;;28.09;42.78;100174.22;5090230;28;20038;-70
2022/06/07 03:19:28;;;;;;;0.88;0.25;;;;;;;28.09;42.86;100180.38;5082877;28;20411;-70
2022/06/07 03:21:54;;;;;;;0.60;0.22;;;;;;;28.09;42.75;100177.72;5070898;28;20036;-71
2022/06/07 03:24:20;;;;;;;0.65;0.20;;;;;;;28.09;42.50;100179.59;5090993;28;20034;-70
2022/06/07 03:26:45;;;;;;;1.60;0.20;;;;;;;28.10;42.50;100170.47;5087542;28;20040;-70
2022/06/07 03:29:10;;;;;;;0.65;0.20;;;;;;;28.09;42.80;100167.00;5090844;28;20115;-70
2022/06/07 03:31:36;;;;;;;0.85;0.10;;;;;;;28.11;42.80;100155.22;5087641;28;20035;-70
2022/06/07 03:34:01;;;;;;;0.50;0.20;;;;;;;28.12;42.62;100159.50;5086878;28;20028;-71
2022/06/07 03:36:29;;;;;;;0.50;0.20;;;;;;;28.12;42.66;100154.16;5086771;28;20032;-70
2022/06/07 03:38:57;;;;;;;0.30;0.20;;;;;;;28.11;42.89;100161.38;5089050;28;20032;-70
2022/06/07 03:41:25;;;;;;;0.57;0.20;;;;;;;28.12;42.40;100146.13;5085169;28;20040;-71
2022/06/07 03:43:51;;;;;;;0.40;0.20;;;;;;;28.11;42.67;100147.19;5088180;28;20440;-70
2022/06/07 03:46:20;;;;;;;0.68;0.30;;;;;;;28.10;42.53;100146.38;5087389;28;20055;-70
2022/06/07 03:48:46;;;;;;;0.32;0.20;;;;;;;28.09;42.61;100145.56;5079866;28;20032;-70
2022/06/07 03:51:13;;;;;;;0.88;0.28;;;;;;;28.09;42.52;100140.22;5090512;28;20032;-70
2022/06/07 03:53:39;;;;;;;1.40;0.20;;;;;;;28.09;42.47;100147.44;5087117;28;20039;-72
2022/06/07 03:56:05;;;;;;;0.52;0.20;;;;;;;28.07;42.81;100147.72;5084708;28;20028;-71
2022/06/07 03:58:30;;;;;;;1.48;0.20;;;;;;;28.06;42.68;100140.75;5070088;28;20063;-71
2022/06/07 04:00:58;;;;;;;1.15;0.50;;;;;;;28.07;42.89;100136.22;5088653;28;20063;-71
2022/06/07 04:03:24;;;;;;;0.50;0.20;;;;;;;28.05;42.62;100139.16;5086742;28;20436;-72
2022/06/07 04:05:49;;;;;;;0.73;0.20;;;;;;;28.05;42.72;100136.47;5087639;28;20107;-72
2022/06/07 04:08:15;;;;;;;1.50;0.20;;;;;;;28.04;42.66;100124.16;5085911;28;20409;-71
2022/06/07 04:11:02;;;;;;;0.40;0.20;;;;;;;28.02;42.53;100125.50;5087282;28;20031;-71
2022/06/07 04:13:30;;;;;;;0.63;0.20;;;;;;;28.02;42.90;100118.25;5086097;28;20052;-71
2022/06/07 04:15:55;;;;;;;0.45;0.20;;;;;;;28.01;42.52;100116.66;5068552;28;20470;-71
2022/06/07 04:18:21;;;;;;;0.30;0.20;;;;;;;28.00;42.87;100120.41;5088703;28;20057;-71
2022/06/07 04:20:47;;;;;;;1.30;0.38;;;;;;;28.00;42.59;100120.41;5070388;28;20042;-71
2022/06/07 04:23:20;;;;;;;0.80;0.20;;;;;;;27.98;42.60;100117.19;5086463;28;20074;-71
2022/06/07 04:25:46;;;;;;;2.17;0.30;;;;;;;27.99;42.93;100108.09;5085664;28;20047;-71
2022/06/07 04:28:13;;;;;;;1.00;0.30;;;;;;;27.99;42.82;100115.31;5081582;28;20448;-72
2022/06/07 04:30:45;;;;;;;0.82;0.20;;;;;;;27.98;42.89;100113.72;5086768;28;20028;-71
2022/06/07 04:33:12;;;;;;;1.55;0.20;;;;;;;27.97;43.10;100099.50;5087273;28;20031;-72
2022/06/07 04:35:37;;;;;;;1.00;0.40;;;;;;;27.97;42.80;100096.84;5088147;28;20032;-72
2022/06/07 04:38:03;;;;;;;0.40;0.20;;;;;;;27.98;42.67;100103.81;5087142;28;20073;-72
2022/06/07 04:40:29;;;;;;;0.50;0.22;;;;;;;27.99;43.23;100101.94;5086298;28;20024;-71
2022/06/07 04:42:54;;;;;;;0.82;0.20;;;;;;;28.00;42.85;100098.97;5085837;28;20016;-72
2022/06/07 04:45:20;;;;;;;0.43;0.20;;;;;;;28.00;42.78;100104.34;5088049;28;20031;-71
2022/06/07 04:47:46;;;;;;;0.50;0.20;;;;;;;28.02;42.70;100109.44;5084514;28;20110;-72
2022/06/07 04:50:16;;;;;;;0.70;0.20;;;;;;;28.01;42.82;100105.94;5085556;28;20032;-71
2022/06/07 04:52:43;;;;;;;0.40;0.20;;;;;;;28.02;42.75;100106.75;5079893;28;20034;-71
2022/06/07 04:55:10;;;;;;;1.40;0.20;;;;;;;28.01;42.80;100105.94;5087136;28;20032;-71
2022/06/07 04:57:35;;;;;;;0.68;0.20;;;;;;;28.01;42.86;100108.63;5082215;28;20029;-71
2022/06/07 05:00:01;;;;;;;0.68;0.30;;;;;;;28.01;43.05;100105.94;5081683;28;20054;-71
2022/06/07 05:02:26;;;;;;;0.80;0.30;;;;;;;28.02;42.71;100104.88;5085546;28;20126;-71
2022/06/07 05:04:52;;;;;;;0.88;0.22;;;;;;;28.02;43.32;100107.56;5086641;28;20039;-72
2022/06/07 05:07:18;;;;;;;1.52;0.20;;;;;;;28.02;43.30;100104.06;5089028;28;20077;-71
2022/06/07 05:09:43;;;;;;;1.38;0.30;;;;;;;28.01;43.35;100103.28;5087337;28;20024;-72
2022/06/07 05:12:09;;;;;;;0.70;0.30;;;;;;;28.02;43.20;100096.84;5087363;28;20293;-72
2022/06/07 05:14:35;;;;;;;1.15;0.30;;;;;;;28.02;43.30;100096.84;5089130;28;20047;-71
2022/06/07 05:17:01;;;;;;;1.08;0.25;;;;;;;28.03;43.38;100101.13;5086260;28;20077;-72
2022/06/07 05:19:29;;;;;;;1.73;0.30;;;;;;;28.03;43.32;100101.13;5087200;28;20032;-71
2022/06/07 05:21:55;;;;;;;0.88;0.30;;;;;;;28.02;43.15;100106.75;5087616;28;20119;-71
2022/06/07 05:24:21;;;;;;;0.70;0.30;;;;;;;28.02;43.04;100099.53;5084472;28;20027;-71
2022/06/07 05:26:54;;;;;;;1.15;0.25;;;;;;;28.02;43.33;100110.22;5088711;28;20024;-71
2022/06/07 05:29:33;;;;;;;0.50;0.30;;;;;;;28.00;43.24;100107.00;5076991;28;20173;-72
2022/06/07 05:31:59;;;;;;;1.23;0.20;;;;;;;28.01;43.33;100110.50;5080991;28;20028;-72
2022/06/07 05:34:24;;;;;;;0.70;0.30;;;;;;;28.02;43.12;100112.91;5083350;28;20038;-71
2022/06/07 05:36:50;;;;;;;1.77;0.30;;;;;;;28.01;43.74;100105.94;5085895;28;20114;-71
2022/06/07 05:39:27;;;;;;;1.17;0.30;;;;;;;28.00;43.10;100112.38;5086960;28;20064;-71
2022/06/07 05:41:53;;;;;;;0.45;0.20;;;;;;;28.01;43.48;100108.63;5085980;28;20034;-71
2022/06/07 05:44:20;;;;;;;1.52;0.20;;;;;;;28.04;43.22;100109.97;5085429;28;20084;-71
2022/06/07 05:46:46;;;;;;;0.63;0.20;;;;;;;28.04;43.27;100109.97;5083151;28;20028;-71
2022/06/07 05:49:13;;;;;;;0.95;0.30;;;;;;;28.05;43.11;100107.00;5085455;28;20400;-71
2022/06/07 05:51:39;;;;;;;0.70;0.30;;;;;;;28.06;43.26;100113.19;5085954;28;20041;-71
2022/06/07 05:54:06;;;;;;;0.40;0.20;;;;;;;28.06;43.07;100111.31;5080047;28;20441;-72
2022/06/07 05:56:33;;;;;;;0.82;0.30;;;;;;;28.06;43.14;100113.97;5082357;28;20027;-71
2022/06/07 05:58:59;;;;;;;1.63;0.30;;;;;;;28.07;42.89;100120.94;5083802;28;20028;-72
2022/06/07 06:01:26;;;;;;;1.95;0.20;;;;;;;28.06;43.00;100113.97;5086148;28;20032;-72
2022/06/07 06:03:54;;;;;;;1.20;0.40;;;;;;;28.07;43.21;100110.22;5081730;28;20399;-72
2022/06/07 06:06:20;;;;;;;1.25;0.30;;;;;;;28.07;42.90;100112.09;5084899;28;20446;-71
2022/06/07 06:11:32;;;;;;;1.50;0.30;;;;;;;28.07;43.17;100117.47;5084945;28;20507;-72
2022/06/07 06:13:57;;;;;;;1.55;0.35;;;;;;;28.05;43.05;100119.59;5082862;28;20028;-72
2022/06/07 06:16:23;;;;;;;0.80;0.20;;;;;;;28.04;43.05;100121.47;5083016;28;20028;-72
2022/06/07 06:18:53;;;;;;;1.42;0.40;;;;;;;28.05;43.30;100127.63;5081405;28;20138;-72
2022/06/07 06:21:21;;;;;;;1.02;0.40;;;;;;;28.03;43.25;100130.56;5088900;28;20040;-72
2022/06/07 06:23:46;;;;;;;4.95;0.30;;;;;;;28.01;43.16;100126.56;5086529;28;20028;-71
2022/06/07 06:26:15;;;;;;;2.75;0.30;;;;;;;28.00;43.19;100124.94;5088441;28;20042;-72
2022/06/07 06:28:41;;;;;;;0.63;0.20;;;;;;;27.99;43.04;100120.66;5085933;28;20334;-72
2022/06/07 06:31:09;;;;;;;0.68;0.20;;;;;;;27.99;43.07;100118.00;5091348;28;20360;-72
2022/06/07 06:33:39;;;;;;;2.40;0.30;;;;;;;28.00;42.89;100119.59;5090532;28;20038;-71
2022/06/07 06:36:07;;;;;;;0.95;0.30;;;;;;;27.98;41.50;100124.41;5087696;28;20020;-72
2022/06/07 06:38:34;;;;;;;1.63;0.30;;;;;;;28.00;41.91;100112.38;5086865;28;20959;-72
2022/06/07 06:41:20;;;;;;;1.45;0.35;;;;;;;28.09;42.70;100116.13;5082080;28;20384;-72
2022/06/07 06:43:46;;;;;;;1.75;0.32;;;;;;;28.15;42.78;100122.28;5079756;28;20051;-72
2022/06/07 06:46:17;;;;;;;2.50;0.30;;;;;;;28.16;42.39;100118.53;5088457;28;20020;-72
2022/06/07 06:48:46;;;;;;;2.20;0.40;;;;;;;28.17;43.13;100108.63;5088078;28;20040;-72
2022/06/07 06:51:14;;;;;;;1.67;0.30;;;;;;;28.15;43.06;100095.50;5090371;28;20596;-72
2022/06/07 06:53:41;;;;;;;5.00;0.30;;;;;;;28.11;43.91;100096.31;5085324;28;20398;-72
2022/06/07 06:56:11;;;;;;;1.42;0.20;;;;;;;28.07;42.99;100096.84;5090520;28;20391;-72
2022/06/07 06:58:37;;;;;;;5.40;0.30;;;;;;;28.04;42.98;100102.72;5072053;28;20081;-72
2022/06/07 07:01:06;;;;;;;2.50;0.30;;;;;;;28.03;43.05;100098.44;5072008;28;20220;-71
2022/06/07 07:03:33;;;;;;;1.63;0.40;;;;;;;28.03;42.94;100100.31;5091020;28;20047;-71
2022/06/07 07:06:00;;;;;;;3.15;0.30;;;;;;;28.00;42.58;100093.63;5090600;28;20031;-72
2022/06/07 07:08:27;;;;;;;2.45;0.30;;;;;;;27.96;42.07;100103.25;5089062;28;20032;-71
2022/06/07 07:11:05;;;;;;;5.45;0.30;;;;;;;27.92;42.35;100102.19;5089222;28;20038;-71
2022/06/07 07:13:30;;;;;;;1.42;0.30;;;;;;;27.91;42.55;100110.50;5089463;28;20048;-71
2022/06/07 07:15:56;;;;;;;2.80;0.30;;;;;;;27.91;42.56;100107.81;5090148;28;20028;-72
2022/06/07 07:18:22;;;;;;;3.00;0.40;;;;;;;27.91;42.31;100108.63;5090326;28;20110;-73
2022/06/07 07:20:47;;;;;;;5.47;0.52;;;;;;;27.89;42.36;100109.94;5089353;28;20028;-71
2022/06/07 07:23:13;;;;;;;2.42;0.30;;;;;;;27.89;42.63;100110.75;5088061;28;20034;-70
2022/06/07 07:25:38;;;;;;;2.45;0.30;;;;;;;27.89;42.66;100104.59;5080188;28;20031;-72
2022/06/07 07:28:04;;;;;;;1.33;0.30;;;;;;;27.87;42.47;100104.09;5089189;28;20055;-73
2022/06/07 07:30:30;;;;;;;4.15;0.40;;;;;;;27.88;42.05;100103.81;5086609;28;20039;-72
2022/06/07 07:32:56;;;;;;;4.97;0.38;;;;;;;27.90;42.13;100103.53;5088048;28;20075;-72
2022/06/07 07:35:22;;;;;;;1.95;0.38;;;;;;;27.88;42.11;100103.81;5090552;28;20028;-72
2022/06/07 07:37:48;;;;;;;1.65;0.40;;;;;;;27.88;42.23;100106.50;5090748;28;20073;-72
2022/06/07 07:40:14;;;;;;;2.35;0.20;;;;;;;27.86;41.57;100107.84;5090501;28;20031;-72
2022/06/07 07:42:41;;;;;;;1.05;0.20;;;;;;;27.83;41.26;100103.81;5090704;28;20107;-72
2022/06/07 07:45:08;;;;;;;0.57;0.30;;;;;;;27.82;40.99;100102.22;5090445;28;20047;-72
2022/06/07 07:47:33;;;;;;;1.38;0.20;;;;;;;27.81;40.39;100107.84;5090623;28;20028;-72
2022/06/07 07:49:59;;;;;;;0.70;0.20;;;;;;;27.78;40.08;100100.34;5090283;28;20521;-72
2022/06/07 07:52:25;;;;;;;0.50;0.30;;;;;;;27.77;39.96;100104.88;5090586;28;20034;-72
2022/06/07 07:54:51;;;;;;;2.20;0.20;;;;;;;27.76;39.37;100108.63;5090375;28;20051;-72
2022/06/07 07:57:16;;;;;;;1.00;0.20;;;;;;;27.76;39.35;100111.31;5090252;28;20067;-73
2022/06/07 07:59:42;;;;;;;1.10;0.30;;;;;;;27.75;39.11;100107.81;5090153;28;20411;-71
2022/06/07 08:02:16;;;;;;;1.83;0.30;;;;;;;27.74;39.16;100100.06;5090190;28;20020;-72
2022/06/07 08:04:41;;;;;;;0.68;0.20;;;;;;;27.77;39.65;100107.56;5090094;28;20039;-72
2022/06/07 08:07:07;;;;;;;1.10;0.35;;;;;;;27.76;39.25;100097.91;5090384;28;20028;-72
2022/06/07 08:09:33;;;;;;;1.13;0.20;;;;;;;27.77;39.41;100099.53;5090053;28;20024;-72
2022/06/07 08:11:59;;;;;;;1.42;0.20;;;;;;;27.77;39.04;100104.88;5089572;28;20054;-72
2022/06/07 08:14:25;;;;;;;0.75;0.30;;;;;;;27.76;38.31;100103.28;5089976;28;20024;-71
2022/06/07 08:16:50;;;;;;;0.40;0.13;;;;;;;27.76;38.48;100100.59;5089919;28;20105;-71
2022/06/07 08:19:18;;;;;;;0.50;0.20;;;;;;;27.78;38.24;100103.81;5089884;28;20032;-71
2022/06/07 08:21:43;;;;;;;0.82;0.20;;;;;;;27.82;38.39;100101.41;5090008;28;20032;-70
2022/06/07 08:24:09;;;;;;;3.58;0.20;;;;;;;27.84;38.39;100099.28;5089693;28;20581;-71
2022/06/07 08:26:35;;;;;;;3.80;0.28;;;;;;;27.85;38.50;100104.34;5089681;28;20101;-70
2022/06/07 08:29:02;;;;;;;0.60;0.20;;;;;;;27.87;38.78;100101.41;5089616;28;20032;-71
2022/06/07 08:31:29;;;;;;;2.08;0.28;;;;;;;27.88;38.61;100100.34;5089540;28;20036;-70
2022/06/07 08:39:25;;;;;;;0.40;0.20;;;;;;;27.84;38.48;100094.72;5089662;28;20083;-71
2022/06/07 08:41:59;;;;;;;0.77;0.20;;;;;;;27.86;38.43;100095.25;5089885;28;20380;-71
2022/06/07 08:44:26;;;;;;;0.88;0.20;;;;;;;27.88;38.69;100098.47;5089474;28;20084;-70
2022/06/07 08:46:57;;;;;;;0.85;0.13;;;;;;;27.89;38.76;100089.34;5089255;28;20438;-70
2022/06/07 08:49:23;;;;;;;0.65;0.15;;;;;;;27.89;39.03;100088.53;5089335;28;20050;-70
2022/06/07 08:51:49;;;;;;;0.88;0.10;;;;;;;27.87;39.26;100085.34;5088507;28;20444;-71
2022/06/07 08:54:19;;;;;;;0.45;0.10;;;;;;;27.86;39.12;100084.56;5089258;28;20458;-70
2022/06/07 08:56:45;;;;;;;0.60;0.20;;;;;;;27.83;39.08;100078.94;5089560;28;20035;-71
2022/06/07 08:59:17;;;;;;;0.35;0.10;;;;;;;27.79;38.54;100086.69;5089451;28;20039;-71
2022/06/07 09:01:54;;;;;;;1.83;0.20;;;;;;;27.73;38.13;100087.75;5089426;28;20199;-71
2022/06/07 09:04:24;;;;;;;0.50;0.10;;;;;;;27.75;38.15;100082.94;5088789;28;20031;-70
2022/06/07 09:06:56;;;;;;;0.70;0.20;;;;;;;27.74;37.93;100078.66;5088831;28;20039;-70
2022/06/07 09:12:09;;;;;;;0.55;0.20;;;;;;;27.74;38.33;100078.66;5088942;28;20088;-70
2022/06/07 09:12:17;;;;;;;0.40;0.13;;;;;;;27.74;38.09;100079.44;5088674;28;20128;-71
2022/06/07 09:15:12;;;;;;;0.50;0.20;;;;;;;27.76;38.18;100073.84;5088693;28;20081;-70
2022/06/07 09:17:46;;;;;;;0.40;0.10;;;;;;;27.75;38.34;100077.56;5084668;28;20044;-70
2022/06/07 09:20:21;;;;;;;1.65;0.20;;;;;;;27.76;38.26;100076.50;5088654;28;20032;-71
2022/06/07 09:22:58;;;;;;;0.43;0.30;;;;;;;27.73;38.35;100071.69;5088697;28;20060;-71
2022/06/07 09:25:34;;;;;;;0.73;0.20;;;;;;;27.74;38.14;100062.59;5088354;28;20518;-71
2022/06/07 09:28:01;;;;;;;0.73;0.20;;;;;;;27.74;38.33;100057.22;5088559;28;20500;-71
2022/06/07 09:30:40;;;;;;;0.43;0.20;;;;;;;27.71;37.81;100058.56;5088416;28;20032;-71
2022/06/07 09:33:10;;;;;;;0.75;0.15;;;;;;;27.72;38.33;100054.81;5088503;28;20044;-71
2022/06/07 09:35:38;;;;;;;1.17;0.20;;;;;;;27.74;38.13;100054.56;5088167;28;20024;-71
2022/06/07 09:38:15;;;;;;;0.50;0.10;;;;;;;27.74;38.28;100049.22;5088693;28;20334;-71
2022/06/07 09:40:56;;;;;;;0.85;0.20;;;;;;;27.71;38.16;100050.53;5088502;28;20066;-72
2022/06/07 09:43:38;;;;;;;0.52;0.20;;;;;;;27.73;38.25;100044.91;5088510;28;20080;-72
2022/06/07 09:46:08;;;;;;;1.58;0.20;;;;;;;27.72;38.41;100043.31;5088647;28;20043;-71
2022/06/07 09:48:43;;;;;;;0.30;0.20;;;;;;;27.72;38.62;100040.63;5088292;28;20488;-71
2022/06/07 09:51:15;;;;;;;1.90;0.20;;;;;;;27.73;38.60;100044.91;5087770;28;20081;-71
2022/06/07 09:53:43;;;;;;;0.90;0.10;;;;;;;27.72;38.43;100041.44;5086087;28;20046;-71
2022/06/07 09:56:19;;;;;;;0.38;0.20;;;;;;;27.73;38.58;100032.34;5080550;28;20028;-71
2022/06/07 09:58:55;;;;;;;0.50;0.17;;;;;;;27.74;38.69;100033.94;5087813;28;20036;-71
2022/06/07 10:01:27;;;;;;;0.38;0.10;;;;;;;27.76;38.70;100028.34;5083969;28;20484;-70
2022/06/07 10:04:06;;;;;;;0.28;0.13;;;;;;;27.76;38.75;100028.34;5084443;28;20028;-70
2022/06/07 10:06:36;;;;;;;0.60;0.30;;;;;;;27.77;38.72;100027.25;5073680;28;20028;-71
2022/06/07 10:09:26;;;;;;;1.85;0.20;;;;;;;27.76;38.60;100022.97;5085182;28;20067;-71
2022/06/07 10:12:16;;;;;;;0.63;0.20;;;;;;;27.75;38.34;100016.03;5087556;28;20408;-71
2022/06/07 10:14:44;;;;;;;0.77;0.20;;;;;;;27.76;38.59;100014.94;5065751;28;20048;-71
2022/06/07 10:17:19;;;;;;;2.85;0.20;;;;;;;27.78;38.70;100018.16;5067360;28;20139;-71
2022/06/07 10:19:58;;;;;;;1.67;0.10;;;;;;;27.77;38.41;100008.53;5067613;28;20028;-72
2022/06/07 10:22:39;;;;;;;0.80;0.20;;;;;;;27.77;38.68;100003.16;5067754;28;20446;-71
2022/06/07 10:25:34;;;;;;;1.52;0.20;;;;;;;27.78;38.74;100002.09;5067802;28;20029;-71
2022/06/07 10:28:26;;;;;;;0.88;0.10;;;;;;;27.77;38.38;99997.03;5056385;28;20496;-72
2022/06/07 10:31:01;;;;;;;0.40;0.20;;;;;;;27.79;38.25;100003.72;5067622;28;20029;-71
2022/06/07 10:33:40;;;;;;;0.38;0.20;;;;;;;27.81;38.26;99992.72;5067726;28;20484;-71
2022/06/07 10:36:11;;;;;;;0.52;0.25;;;;;;;27.80;38.21;99986.56;5067523;28;20126;-71
2022/06/07 10:38:41;;;;;;;0.20;0.10;;;;;;;27.84;38.34;99984.97;5067909;28;20094;-71
2022/06/07 10:41:28;;;;;;;1.13;0.20;;;;;;;27.86;37.96;99977.47;5067700;28;20032;-72
2022/06/07 10:43:59;;;;;;;0.98;0.20;;;;;;;27.87;37.93;99981.75;5067530;28;20073;-72
2022/06/07 10:46:27;;;;;;;0.73;0.20;;;;;;;27.88;37.31;99978.00;5067254;28;20070;-71
2022/06/07 10:49:14;;;;;;;1.08;0.30;;;;;;;27.88;36.52;99980.69;5067680;28;20024;-72
2022/06/07 10:54:55;;;;;;;0.63;0.20;;;;;;;27.86;37.19;99974.78;5067742;28;20043;-72
2022/06/07 10:57:20;;;;;;;0.55;0.20;;;;;;;27.87;37.28;99970.25;5067655;28;20431;-72
2022/06/07 10:59:46;;;;;;;0.70;0.10;;;;;;;27.88;37.17;99969.19;5062750;28;20091;-72
2022/06/07 11:02:21;;;;;;;0.90;0.22;;;;;;;27.90;37.38;99964.31;5070773;28;20078;-71
2022/06/07 11:10:35;;;;;;;0.52;0.25;;;;;;;27.93;36.76;99963.78;5067225;28;20039;-72
2022/06/07 11:13:23;;;;;;;1.42;0.20;;;;;;;27.91;37.58;99956.03;5082042;28;20044;-72
2022/06/07 11:16:11;;;;;;;1.05;0.20;;;;;;;27.93;37.57;99961.91;5090869;28;20359;-71
2022/06/07 11:18:41;;;;;;;2.65;0.20;;;;;;;27.95;37.41;99957.09;5047869;28;20584;-72
2022/06/07 11:21:06;;;;;;;3.25;0.55;;;;;;;27.97;37.12;99954.13;5048059;28;20061;-72
2022/06/07 11:23:43;;;;;;;16.17;6.32;;;;;;;28.00;37.03;99962.44;5047909;28;20040;-72
2022/06/07 11:26:14;;;;;;;14.18;5.50;;;;;;;28.00;37.35;99957.06;5047703;28;20055;-72
2022/06/07 11:28:40;;;;;;;9.43;3.45;;;;;;;28.03;38.05;99955.72;5047914;28;20074;-72
2022/06/07 11:31:23;;;;;;;9.07;3.30;;;;;;;28.01;38.52;99956.00;5047870;28;20052;-72
2022/06/07 11:33:51;;;;;;;5.38;1.52;;;;;;;28.03;38.84;99955.72;5047756;28;20033;-72
2022/06/07 11:36:27;;;;;;;5.45;1.77;;;;;;;28.03;39.38;99948.50;5047685;28;20552;-72
2022/06/07 11:38:55;;;;;;;3.92;0.95;;;;;;;28.03;38.93;99947.69;5047737;28;20029;-72
2022/06/07 11:41:40;;;;;;;2.72;0.75;;;;;;;28.03;39.09;99937.78;5047668;28;20041;-72
2022/06/07 11:44:08;;;;;;;1.85;0.60;;;;;;;28.04;39.15;99930.56;5047727;28;20127;-72
2022/06/07 11:46:33;;;;;;;3.22;0.77;;;;;;;28.05;39.08;99932.97;5047511;28;20040;-72
2022/06/07 11:49:24;;;;;;;6.93;0.63;;;;;;;28.04;39.12;99930.56;5047143;28;20036;-72
2022/06/07 11:51:54;;;;;;;1.88;0.68;;;;;;;28.05;39.51;99924.94;5047244;28;20544;-71
2022/06/07 11:54:28;;;;;;;3.05;0.30;;;;;;;28.04;39.36;99915.28;5047198;28;20082;-73
2022/06/07 11:56:58;;;;;;;2.17;0.30;;;;;;;28.05;38.93;99914.22;5090405;28;20089;-72
2022/06/07 11:59:24;;;;;;;0.77;0.20;;;;;;;28.05;38.54;99911.53;5090060;28;20051;-72
2022/06/07 12:02:02;;;;;;;1.75;0.20;;;;;;;28.03;37.63;99910.22;5090273;28;20103;-73